LELL

Sabadell Airport

Sabadell, Spain
TAF LELL 221400Z 2215/2315 VRB04KT 9999 FEW030 TX11/2313Z TN02/2307Z TEMPO 2215/2218 27010KT TEMPO 2306/2310 28010KT PROB30 TEMPO 2307/2312 RA BKN025
Issued Valid From Valid To
Jan-22 @ 14:00 UTC
(3 hours ago)
Jan-22 @ 15:00 UTC
(2 hours ago)
Jan-23 @ 15:00 UTC
(in 22 hours)
Jan-22 @ 15:00 to Jan-23 @ 15:00
TAF LELL 221400Z 2215/2315 VRB04KT 9999 FEW030 TX11/2313Z TN02/2307Z
Wind Visibility Clouds
Variable at 4 knots 10,000+ meters
  • Few at 3,000' AGL
Temporary Jan-22 @ 15:00 to Jan-22 @ 18:00
TEMPO 2215/2218 27010KT
Wind
270° at 10 knots
Temporary Jan-23 @ 06:00 to Jan-23 @ 10:00
TEMPO 2306/2310 28010KT
Wind
280° at 10 knots
Temporary  (Probability 30%) Jan-23 @ 07:00 to Jan-23 @ 12:00
PROB30 TEMPO 2307/2312 RA BKN025
Clouds Conditions
  • Broken at 2,500' AGL
  • Rain
TAF LELL 221400Z 2215/2315 VRB04KT 9999 FEW030 TX11/2313Z TN02/2307Z TEMPO 2215/2218 27010KT TEMPO 2306/2310 28010KT PROB30 TEMPO 2307/2312 RA BKN025
Issued Jan-22 @ 14:00 UTC
(3 hours ago)
Valid From Jan-22 @ 15:00 UTC
(2 hours ago)
Valid To Jan-23 @ 15:00 UTC
(in 22 hours)
Jan-22 @ 15:00 - Jan-23 @ 15:00
Wind Visibility
Variable at 4 knots 10,000+ meters
Clouds
  • Few at 3,000' AGL
Temporary Jan-22 @ 15:00 - Jan-22 @ 18:00
Wind
270° at 10 knots
Temporary Jan-23 @ 06:00 - Jan-23 @ 10:00
Wind
280° at 10 knots
Probability 30% Temporary Jan-23 @ 07:00 - Jan-23 @ 12:00
Clouds
  • Broken at 2,500' AGL
Conditions
  • Rain